sensor_id;sensor_type;location;lat;lon;timestamp;pressure;altitude;pressure_sealevel;temperature;humidity
67013;BME280;53926;47.406;19.188;2022-11-11T00:01:11;101864.19;;;3.18;100.00
67013;BME280;53926;47.406;19.188;2022-11-11T00:03:38;101868.44;;;2.97;100.00
67013;BME280;53926;47.406;19.188;2022-11-11T00:06:15;101870.47;;;2.82;100.00
67013;BME280;53926;47.406;19.188;2022-11-11T00:08:46;101863.28;;;2.97;100.00
67013;BME280;53926;47.406;19.188;2022-11-11T00:11:14;101871.38;;;3.03;100.00
67013;BME280;53926;47.406;19.188;2022-11-11T00:13:42;101875.47;;;2.83;100.00
67013;BME280;53926;47.406;19.188;2022-11-11T00:18:38;101884.25;;;2.70;100.00
67013;BME280;53926;47.406;19.188;2022-11-11T00:21:23;101879.31;;;2.55;100.00
67013;BME280;53926;47.406;19.188;2022-11-11T00:24:18;101880.97;;;2.67;100.00
67013;BME280;53926;47.406;19.188;2022-11-11T00:27:05;101876.03;;;2.64;100.00
67013;BME280;53926;47.406;19.188;2022-11-11T00:29:32;101878.69;;;2.40;100.00
67013;BME280;53926;47.406;19.188;2022-11-11T00:31:59;101875.44;;;2.38;100.00
67013;BME280;53926;47.406;19.188;2022-11-11T00:34:45;101874.75;;;2.47;100.00
67013;BME280;53926;47.406;19.188;2022-11-11T00:37:32;101872.84;;;2.27;100.00
67013;BME280;53926;47.406;19.188;2022-11-11T00:39:59;101874.50;;;2.39;100.00
67013;BME280;53926;47.406;19.188;2022-11-11T00:42:26;101883.84;;;2.40;100.00
67013;BME280;53926;47.406;19.188;2022-11-11T00:44:53;101880.22;;;2.31;100.00
67013;BME280;53926;47.406;19.188;2022-11-11T00:47:20;101882.53;;;2.23;100.00
67013;BME280;53926;47.406;19.188;2022-11-11T00:50:17;101874.81;;;2.23;100.00
67013;BME280;53926;47.406;19.188;2022-11-11T00:53:03;101879.34;;;2.08;100.00
67013;BME280;53926;47.406;19.188;2022-11-11T00:55:30;101877.81;;;2.06;100.00
67013;BME280;53926;47.406;19.188;2022-11-11T00:57:56;101874.22;;;2.20;100.00
67013;BME280;53926;47.406;19.188;2022-11-11T01:00:23;101884.06;;;2.37;100.00
67013;BME280;53926;47.406;19.188;2022-11-11T01:02:50;101893.47;;;2.14;100.00
67013;BME280;53926;47.406;19.188;2022-11-11T01:05:16;101891.91;;;2.00;100.00
67013;BME280;53926;47.406;19.188;2022-11-11T01:07:43;101887.50;;;2.02;100.00
67013;BME280;53926;47.406;19.188;2022-11-11T01:10:10;101885.06;;;2.01;100.00
67013;BME280;53926;47.406;19.188;2022-11-11T01:12:37;101892.53;;;2.04;100.00
67013;BME280;53926;47.406;19.188;2022-11-11T01:15:04;101895.59;;;2.20;100.00
67013;BME280;53926;47.406;19.188;2022-11-11T01:17:31;101888.19;;;1.93;100.00
67013;BME280;53926;47.406;19.188;2022-11-11T01:19:57;101883.50;;;1.87;100.00
67013;BME280;53926;47.406;19.188;2022-11-11T01:22:24;101883.06;;;1.69;100.00
67013;BME280;53926;47.406;19.188;2022-11-11T01:24:51;101883.81;;;1.82;100.00
67013;BME280;53926;47.406;19.188;2022-11-11T01:27:17;101887.16;;;1.71;100.00
67013;BME280;53926;47.406;19.188;2022-11-11T01:29:44;101882.25;;;1.68;100.00
67013;BME280;53926;47.406;19.188;2022-11-11T01:32:11;101885.28;;;1.73;100.00
67013;BME280;53926;47.406;19.188;2022-11-11T01:34:38;101888.44;;;1.77;100.00
67013;BME280;53926;47.406;19.188;2022-11-11T01:37:06;101889.00;;;1.69;100.00
67013;BME280;53926;47.406;19.188;2022-11-11T01:39:33;101895.38;;;1.88;100.00
67013;BME280;53926;47.406;19.188;2022-11-11T01:41:59;101898.34;;;1.94;100.00
67013;BME280;53926;47.406;19.188;2022-11-11T01:44:41;101893.91;;;1.72;100.00
67013;BME280;53926;47.406;19.188;2022-11-11T01:47:08;101894.91;;;1.58;100.00
67013;BME280;53926;47.406;19.188;2022-11-11T01:55:00;101895.72;;;1.35;100.00
67013;BME280;53926;47.406;19.188;2022-11-11T02:00:03;101898.97;;;1.50;100.00
67013;BME280;53926;47.406;19.188;2022-11-11T02:02:44;101891.69;;;1.43;100.00
67013;BME280;53926;47.406;19.188;2022-11-11T02:05:14;101892.75;;;1.28;100.00
67013;BME280;53926;47.406;19.188;2022-11-11T02:08:04;101887.94;;;1.23;100.00
67013;BME280;53926;47.406;19.188;2022-11-11T02:10:33;101893.75;;;1.38;100.00
67013;BME280;53926;47.406;19.188;2022-11-11T02:13:01;101886.66;;;1.42;100.00
67013;BME280;53926;47.406;19.188;2022-11-11T02:15:47;101888.75;;;1.24;100.00
67013;BME280;53926;47.406;19.188;2022-11-11T02:18:13;101892.94;;;1.38;100.00
67013;BME280;53926;47.406;19.188;2022-11-11T02:20:42;101891.00;;;1.29;100.00
67013;BME280;53926;47.406;19.188;2022-11-11T02:23:43;101886.03;;;1.14;100.00
67013;BME280;53926;47.406;19.188;2022-11-11T02:26:13;101888.91;;;1.10;100.00
67013;BME280;53926;47.406;19.188;2022-11-11T02:28:41;101894.16;;;1.08;100.00
67013;BME280;53926;47.406;19.188;2022-11-11T02:31:08;101900.59;;;1.14;100.00
67013;BME280;53926;47.406;19.188;2022-11-11T02:33:35;101901.69;;;1.22;100.00
67013;BME280;53926;47.406;19.188;2022-11-11T02:36:02;101903.78;;;1.17;100.00
67013;BME280;53926;47.406;19.188;2022-11-11T02:38:31;101901.53;;;1.00;100.00
67013;BME280;53926;47.406;19.188;2022-11-11T02:40:58;101907.50;;;0.87;100.00
67013;BME280;53926;47.406;19.188;2022-11-11T02:43:43;101904.41;;;0.95;100.00
67013;BME280;53926;47.406;19.188;2022-11-11T02:46:09;101905.75;;;1.01;100.00
67013;BME280;53926;47.406;19.188;2022-11-11T02:48:36;101908.44;;;0.86;100.00
67013;BME280;53926;47.406;19.188;2022-11-11T02:51:03;101907.69;;;0.84;100.00
67013;BME280;53926;47.406;19.188;2022-11-11T02:53:31;101912.53;;;1.02;100.00
67013;BME280;53926;47.406;19.188;2022-11-11T02:55:58;101914.06;;;0.92;100.00
67013;BME280;53926;47.406;19.188;2022-11-11T02:58:24;101911.84;;;0.74;100.00
67013;BME280;53926;47.406;19.188;2022-11-11T03:00:51;101913.97;;;0.80;100.00
67013;BME280;53926;47.406;19.188;2022-11-11T03:03:18;101909.56;;;0.69;100.00
67013;BME280;53926;47.406;19.188;2022-11-11T03:05:45;101906.59;;;0.76;100.00
67013;BME280;53926;47.406;19.188;2022-11-11T03:08:11;101923.00;;;0.86;100.00
67013;BME280;53926;47.406;19.188;2022-11-11T03:10:38;101921.34;;;0.98;100.00
67013;BME280;53926;47.406;19.188;2022-11-11T03:13:05;101927.91;;;1.02;100.00
67013;BME280;53926;47.406;19.188;2022-11-11T03:15:32;101930.31;;;1.42;100.00
67013;BME280;53926;47.406;19.188;2022-11-11T03:17:59;101934.63;;;1.66;100.00
67013;BME280;53926;47.406;19.188;2022-11-11T03:20:26;101941.31;;;2.28;100.00
67013;BME280;53926;47.406;19.188;2022-11-11T03:23:13;101953.41;;;2.50;100.00
67013;BME280;53926;47.406;19.188;2022-11-11T03:25:45;101942.50;;;2.93;100.00
67013;BME280;53926;47.406;19.188;2022-11-11T03:28:17;101942.25;;;2.85;100.00
67013;BME280;53926;47.406;19.188;2022-11-11T03:30:46;101946.62;;;2.60;100.00
67013;BME280;53926;47.406;19.188;2022-11-11T03:33:14;101953.66;;;2.47;100.00
67013;BME280;53926;47.406;19.188;2022-11-11T03:35:41;101950.31;;;2.33;100.00
67013;BME280;53926;47.406;19.188;2022-11-11T03:38:10;101955.66;;;2.19;100.00
67013;BME280;53926;47.406;19.188;2022-11-11T03:40:55;101959.13;;;2.07;100.00
67013;BME280;53926;47.406;19.188;2022-11-11T03:43:24;101963.53;;;2.05;100.00
67013;BME280;53926;47.406;19.188;2022-11-11T03:45:54;101964.41;;;1.92;100.00
67013;BME280;53926;47.406;19.188;2022-11-11T03:48:21;101966.72;;;1.84;100.00
67013;BME280;53926;47.406;19.188;2022-11-11T03:50:48;101967.84;;;1.80;100.00
67013;BME280;53926;47.406;19.188;2022-11-11T03:53:16;101968.13;;;1.64;100.00
67013;BME280;53926;47.406;19.188;2022-11-11T03:55:43;101964.44;;;1.55;100.00
67013;BME280;53926;47.406;19.188;2022-11-11T03:58:10;101965.50;;;1.53;100.00
67013;BME280;53926;47.406;19.188;2022-11-11T04:00:36;101958.13;;;1.48;100.00
67013;BME280;53926;47.406;19.188;2022-11-11T04:05:51;101962.00;;;1.78;100.00
67013;BME280;53926;47.406;19.188;2022-11-11T04:08:47;101961.59;;;1.47;100.00
67013;BME280;53926;47.406;19.188;2022-11-11T04:11:36;101959.25;;;1.44;100.00
67013;BME280;53926;47.406;19.188;2022-11-11T04:14:10;101962.88;;;1.29;100.00
67013;BME280;53926;47.406;19.188;2022-11-11T04:17:13;101970.38;;;1.19;100.00
67013;BME280;53926;47.406;19.188;2022-11-11T04:19:39;101974.78;;;1.30;100.00
67013;BME280;53926;47.406;19.188;2022-11-11T04:22:24;101972.53;;;1.12;100.00
67013;BME280;53926;47.406;19.188;2022-11-11T04:24:51;101965.97;;;1.08;100.00
67013;BME280;53926;47.406;19.188;2022-11-11T04:27:36;101971.69;;;1.24;100.00
67013;BME280;53926;47.406;19.188;2022-11-11T04:30:03;101970.16;;;1.35;100.00
67013;BME280;53926;47.406;19.188;2022-11-11T04:32:29;101979.06;;;1.29;100.00
67013;BME280;53926;47.406;19.188;2022-11-11T04:35:10;101982.37;;;1.18;100.00
67013;BME280;53926;47.406;19.188;2022-11-11T04:37:48;101983.91;;;1.21;100.00
67013;BME280;53926;47.406;19.188;2022-11-11T04:40:34;101991.12;;;1.16;100.00
67013;BME280;53926;47.406;19.188;2022-11-11T04:43:19;101986.28;;;0.98;100.00
67013;BME280;53926;47.406;19.188;2022-11-11T04:45:47;101995.63;;;1.12;100.00
67013;BME280;53926;47.406;19.188;2022-11-11T04:48:13;101988.84;;;0.98;100.00
67013;BME280;53926;47.406;19.188;2022-11-11T04:50:43;101991.62;;;0.82;100.00
67013;BME280;53926;47.406;19.188;2022-11-11T04:53:12;101995.94;;;0.82;100.00
67013;BME280;53926;47.406;19.188;2022-11-11T04:55:40;101997.75;;;0.80;100.00
67013;BME280;53926;47.406;19.188;2022-11-11T04:58:30;101994.38;;;0.79;100.00
67013;BME280;53926;47.406;19.188;2022-11-11T05:00:58;101997.25;;;0.75;100.00
67013;BME280;53926;47.406;19.188;2022-11-11T05:03:25;101990.19;;;0.78;100.00
67013;BME280;53926;47.406;19.188;2022-11-11T05:05:57;101994.50;;;1.03;100.00
67013;BME280;53926;47.406;19.188;2022-11-11T05:08:47;102004.34;;;0.71;100.00
67013;BME280;53926;47.406;19.188;2022-11-11T05:11:26;102003.09;;;0.64;100.00
67013;BME280;53926;47.406;19.188;2022-11-11T05:13:55;101998.16;;;0.61;100.00
67013;BME280;53926;47.406;19.188;2022-11-11T05:16:46;101994.25;;;0.55;100.00
67013;BME280;53926;47.406;19.188;2022-11-11T05:19:31;102004.69;;;0.52;100.00
67013;BME280;53926;47.406;19.188;2022-11-11T05:24:46;102008.84;;;0.27;100.00
67013;BME280;53926;47.406;19.188;2022-11-11T05:27:31;102020.25;;;0.36;100.00
67013;BME280;53926;47.406;19.188;2022-11-11T05:29:58;102011.88;;;0.60;100.00
67013;BME280;53926;47.406;19.188;2022-11-11T05:32:25;102015.31;;;0.33;100.00
67013;BME280;53926;47.406;19.188;2022-11-11T05:34:52;102006.91;;;0.31;100.00
67013;BME280;53926;47.406;19.188;2022-11-11T05:37:19;102016.47;;;0.42;100.00
67013;BME280;53926;47.406;19.188;2022-11-11T05:39:46;102016.69;;;0.51;100.00
67013;BME280;53926;47.406;19.188;2022-11-11T05:42:13;102015.81;;;0.78;100.00
67013;BME280;53926;47.406;19.188;2022-11-11T05:44:40;102017.03;;;0.60;100.00
67013;BME280;53926;47.406;19.188;2022-11-11T05:47:06;102027.38;;;0.58;100.00
67013;BME280;53926;47.406;19.188;2022-11-11T05:49:35;102027.66;;;0.53;100.00
67013;BME280;53926;47.406;19.188;2022-11-11T05:52:03;102029.63;;;0.63;100.00
67013;BME280;53926;47.406;19.188;2022-11-11T05:54:30;102022.75;;;0.50;100.00
67013;BME280;53926;47.406;19.188;2022-11-11T05:56:59;102034.28;;;0.70;100.00
67013;BME280;53926;47.406;19.188;2022-11-11T05:59:26;102044.53;;;0.70;100.00
67013;BME280;53926;47.406;19.188;2022-11-11T06:01:53;102042.03;;;0.56;100.00
67013;BME280;53926;47.406;19.188;2022-11-11T06:04:19;102041.62;;;0.49;100.00
67013;BME280;53926;47.406;19.188;2022-11-11T06:06:46;102043.25;;;0.50;100.00
67013;BME280;53926;47.406;19.188;2022-11-11T06:09:13;102040.94;;;0.60;100.00
67013;BME280;53926;47.406;19.188;2022-11-11T06:11:39;102048.62;;;0.73;100.00
67013;BME280;53926;47.406;19.188;2022-11-11T06:14:06;102056.59;;;0.56;100.00
67013;BME280;53926;47.406;19.188;2022-11-11T06:16:33;102054.38;;;0.64;100.00
67013;BME280;53926;47.406;19.188;2022-11-11T06:19:00;102046.59;;;0.78;100.00
67013;BME280;53926;47.406;19.188;2022-11-11T06:21:30;102043.75;;;0.96;100.00
67013;BME280;53926;47.406;19.188;2022-11-11T06:24:19;102054.53;;;0.88;100.00
67013;BME280;53926;47.406;19.188;2022-11-11T06:26:53;102054.72;;;0.98;100.00
67013;BME280;53926;47.406;19.188;2022-11-11T06:29:20;102058.44;;;1.19;100.00
67013;BME280;53926;47.406;19.188;2022-11-11T06:31:47;102061.41;;;1.26;100.00
67013;BME280;53926;47.406;19.188;2022-11-11T06:34:13;102067.19;;;1.30;100.00
67013;BME280;53926;47.406;19.188;2022-11-11T06:36:41;102066.84;;;1.47;100.00
67013;BME280;53926;47.406;19.188;2022-11-11T06:39:07;102069.81;;;1.67;100.00
67013;BME280;53926;47.406;19.188;2022-11-11T06:41:34;102077.84;;;1.62;100.00
67013;BME280;53926;47.406;19.188;2022-11-11T06:44:01;102065.09;;;1.60;100.00
67013;BME280;53926;47.406;19.188;2022-11-11T06:46:27;102075.56;;;1.70;100.00
67013;BME280;53926;47.406;19.188;2022-11-11T06:48:54;102071.44;;;1.81;100.00
67013;BME280;53926;47.406;19.188;2022-11-11T06:51:20;102074.13;;;2.03;100.00
67013;BME280;53926;47.406;19.188;2022-11-11T06:53:47;102069.00;;;2.03;100.00
67013;BME280;53926;47.406;19.188;2022-11-11T06:56:14;102069.50;;;2.32;100.00
67013;BME280;53926;47.406;19.188;2022-11-11T06:58:43;102070.53;;;2.54;100.00
67013;BME280;53926;47.406;19.188;2022-11-11T07:01:11;102074.63;;;2.92;100.00
67013;BME280;53926;47.406;19.188;2022-11-11T07:03:38;102070.91;;;2.96;100.00
67013;BME280;53926;47.406;19.188;2022-11-11T07:06:05;102086.88;;;3.13;100.00
67013;BME280;53926;47.406;19.188;2022-11-11T07:08:32;102098.09;;;3.23;100.00
67013;BME280;53926;47.406;19.188;2022-11-11T07:10:59;102095.06;;;3.29;100.00
67013;BME280;53926;47.406;19.188;2022-11-11T07:13:36;102105.06;;;3.45;100.00
67013;BME280;53926;47.406;19.188;2022-11-11T07:16:03;102102.34;;;3.69;100.00
67013;BME280;53926;47.406;19.188;2022-11-11T07:18:30;102115.34;;;3.90;100.00
67013;BME280;53926;47.406;19.188;2022-11-11T07:20:59;102117.16;;;4.34;100.00
67013;BME280;53926;47.406;19.188;2022-11-11T07:23:25;102115.63;;;4.42;100.00
67013;BME280;53926;47.406;19.188;2022-11-11T07:25:52;102123.25;;;4.65;100.00
67013;BME280;53926;47.406;19.188;2022-11-11T07:28:18;102116.47;;;4.85;100.00
67013;BME280;53926;47.406;19.188;2022-11-11T07:30:45;102129.34;;;4.96;100.00
67013;BME280;53926;47.406;19.188;2022-11-11T07:33:11;102133.94;;;5.14;100.00
67013;BME280;53926;47.406;19.188;2022-11-11T07:35:38;102125.50;;;5.33;100.00
67013;BME280;53926;47.406;19.188;2022-11-11T07:38:04;102134.75;;;5.57;100.00
67013;BME280;53926;47.406;19.188;2022-11-11T07:40:31;102140.25;;;5.73;100.00
67013;BME280;53926;47.406;19.188;2022-11-11T07:42:58;102143.69;;;5.83;100.00
67013;BME280;53926;47.406;19.188;2022-11-11T07:45:24;102139.56;;;6.02;100.00
67013;BME280;53926;47.406;19.188;2022-11-11T07:47:51;102139.59;;;6.12;100.00
67013;BME280;53926;47.406;19.188;2022-11-11T07:50:17;102153.66;;;6.29;100.00
67013;BME280;53926;47.406;19.188;2022-11-11T07:52:48;102155.44;;;6.48;100.00
67013;BME280;53926;47.406;19.188;2022-11-11T07:55:14;102156.69;;;6.73;100.00
67013;BME280;53926;47.406;19.188;2022-11-11T07:57:41;102150.97;;;6.89;100.00
67013;BME280;53926;47.406;19.188;2022-11-11T08:00:08;102155.44;;;7.06;100.00
67013;BME280;53926;47.406;19.188;2022-11-11T08:02:35;102164.72;;;7.19;100.00
67013;BME280;53926;47.406;19.188;2022-11-11T08:05:02;102161.53;;;7.82;100.00
67013;BME280;53926;47.406;19.188;2022-11-11T08:07:28;102154.53;;;9.36;100.00
67013;BME280;53926;47.406;19.188;2022-11-11T08:09:55;102162.47;;;9.95;100.00
67013;BME280;53926;47.406;19.188;2022-11-11T08:12:21;102159.41;;;10.92;100.00
67013;BME280;53926;47.406;19.188;2022-11-11T08:15:07;102172.09;;;10.79;100.00
67013;BME280;53926;47.406;19.188;2022-11-11T08:17:37;102157.50;;;12.52;100.00
67013;BME280;53926;47.406;19.188;2022-11-11T08:20:08;102167.16;;;14.24;100.00
67013;BME280;53926;47.406;19.188;2022-11-11T08:22:40;102171.94;;;13.84;100.00
67013;BME280;53926;47.406;19.188;2022-11-11T08:25:13;102162.97;;;13.57;100.00
67013;BME280;53926;47.406;19.188;2022-11-11T08:27:40;102168.81;;;13.74;100.00
67013;BME280;53926;47.406;19.188;2022-11-11T08:30:08;102155.87;;;14.67;100.00
67013;BME280;53926;47.406;19.188;2022-11-11T08:32:35;102158.91;;;16.11;100.00
67013;BME280;53926;47.406;19.188;2022-11-11T08:35:01;102169.50;;;17.18;97.57
67013;BME280;53926;47.406;19.188;2022-11-11T08:37:28;102166.78;;;19.10;73.56
67013;BME280;53926;47.406;19.188;2022-11-11T08:39:55;102168.34;;;19.37;69.92
67013;BME280;53926;47.406;19.188;2022-11-11T08:42:22;102168.34;;;20.58;67.17
67013;BME280;53926;47.406;19.188;2022-11-11T08:44:49;102161.66;;;20.55;63.46
67013;BME280;53926;47.406;19.188;2022-11-11T08:47:17;102172.53;;;20.89;63.63
67013;BME280;53926;47.406;19.188;2022-11-11T08:49:45;102157.47;;;19.45;60.50
67013;BME280;53926;47.406;19.188;2022-11-11T08:52:15;102157.66;;;21.12;69.78
67013;BME280;53926;47.406;19.188;2022-11-11T08:54:41;102166.19;;;21.67;57.33
67013;BME280;53926;47.406;19.188;2022-11-11T08:57:08;102164.16;;;21.86;66.86
67013;BME280;53926;47.406;19.188;2022-11-11T08:59:34;102165.50;;;22.68;54.61
67013;BME280;53926;47.406;19.188;2022-11-11T09:02:01;102172.87;;;19.48;60.37
67013;BME280;53926;47.406;19.188;2022-11-11T09:04:28;102178.47;;;22.64;54.34
67013;BME280;53926;47.406;19.188;2022-11-11T09:07:11;102177.66;;;23.42;49.88
67013;BME280;53926;47.406;19.188;2022-11-11T09:09:38;102174.81;;;22.20;51.54
67013;BME280;53926;47.406;19.188;2022-11-11T09:12:04;102175.87;;;23.26;51.85
67013;BME280;53926;47.406;19.188;2022-11-11T09:14:31;102178.81;;;25.08;46.02
67013;BME280;53926;47.406;19.188;2022-11-11T09:16:58;102174.19;;;24.93;44.28
67013;BME280;53926;47.406;19.188;2022-11-11T09:19:24;102175.25;;;25.40;41.23
67013;BME280;53926;47.406;19.188;2022-11-11T09:21:51;102174.59;;;22.21;52.72
67013;BME280;53926;47.406;19.188;2022-11-11T09:24:18;102188.12;;;25.84;41.34
67013;BME280;53926;47.406;19.188;2022-11-11T09:26:49;102173.75;;;26.57;37.70
67013;BME280;53926;47.406;19.188;2022-11-11T09:29:17;102177.50;;;26.05;39.64
67013;BME280;53926;47.406;19.188;2022-11-11T09:31:45;102176.66;;;25.84;39.23
67013;BME280;53926;47.406;19.188;2022-11-11T09:34:12;102163.69;;;23.52;43.17
67013;BME280;53926;47.406;19.188;2022-11-11T09:36:39;102167.78;;;21.03;50.15
67013;BME280;53926;47.406;19.188;2022-11-11T09:39:06;102163.97;;;20.52;50.70
67013;BME280;53926;47.406;19.188;2022-11-11T09:47:04;102171.44;;;20.43;52.24
67013;BME280;53926;47.406;19.188;2022-11-11T09:49:52;102158.22;;;20.01;50.85
67013;BME280;53926;47.406;19.188;2022-11-11T09:52:36;102150.84;;;18.99;54.31
67013;BME280;53926;47.406;19.188;2022-11-11T09:55:29;102159.59;;;18.17;57.66
67013;BME280;53926;47.406;19.188;2022-11-11T09:58:08;102173.06;;;18.91;54.55
67013;BME280;53926;47.406;19.188;2022-11-11T10:00:39;102167.69;;;20.86;51.56
67013;BME280;53926;47.406;19.188;2022-11-11T10:03:15;102164.69;;;21.06;49.82
67013;BME280;53926;47.406;19.188;2022-11-11T10:08:21;102168.00;;;22.58;46.87
67013;BME280;53926;47.406;19.188;2022-11-11T10:10:51;102168.19;;;22.34;45.38
67013;BME280;53926;47.406;19.188;2022-11-11T10:13:19;102169.31;;;23.33;43.30
67013;BME280;53926;47.406;19.188;2022-11-11T10:19:08;102165.87;;;24.47;40.54
67013;BME280;53926;47.406;19.188;2022-11-11T10:21:50;102160.94;;;21.31;47.66
67013;BME280;53926;47.406;19.188;2022-11-11T10:24:41;102150.19;;;24.13;43.43
67013;BME280;53926;47.406;19.188;2022-11-11T10:27:21;102137.50;;;25.11;39.94
67013;BME280;53926;47.406;19.188;2022-11-11T10:29:49;102140.22;;;24.68;39.96
67013;BME280;53926;47.406;19.188;2022-11-11T10:34:45;102132.41;;;23.64;43.36
67013;BME280;53926;47.406;19.188;2022-11-11T10:37:41;102131.31;;;20.70;51.69
67013;BME280;53926;47.406;19.188;2022-11-11T10:40:20;102135.91;;;20.75;52.36
67013;BME280;53926;47.406;19.188;2022-11-11T10:42:47;102125.00;;;21.93;48.54
67013;BME280;53926;47.406;19.188;2022-11-11T10:45:34;102127.81;;;23.54;44.68
67013;BME280;53926;47.406;19.188;2022-11-11T10:48:08;102131.13;;;23.89;42.67
67013;BME280;53926;47.406;19.188;2022-11-11T10:50:42;102124.69;;;23.63;42.06
67013;BME280;53926;47.406;19.188;2022-11-11T10:58:53;102121.31;;;21.36;42.87
67013;BME280;53926;47.406;19.188;2022-11-11T11:01:31;102115.97;;;20.25;47.29
67013;BME280;53926;47.406;19.188;2022-11-11T11:04:05;102118.34;;;21.90;43.46
67013;BME280;53926;47.406;19.188;2022-11-11T11:06:50;102117.22;;;21.17;44.19
67013;BME280;53926;47.406;19.188;2022-11-11T11:09:49;102114.16;;;20.84;45.81
67013;BME280;53926;47.406;19.188;2022-11-11T11:12:38;102110.81;;;19.88;49.90
67013;BME280;53926;47.406;19.188;2022-11-11T11:15:12;102106.44;;;20.35;49.08
67013;BME280;53926;47.406;19.188;2022-11-11T11:18:00;102102.34;;;19.67;47.17
67013;BME280;53926;47.406;19.188;2022-11-11T11:20:28;102103.38;;;18.73;50.37
67013;BME280;53926;47.406;19.188;2022-11-11T11:22:56;102097.50;;;18.71;53.59
67013;BME280;53926;47.406;19.188;2022-11-11T11:25:26;102099.03;;;18.35;56.38
67013;BME280;53926;47.406;19.188;2022-11-11T11:30:32;102081.03;;;18.00;61.73
67013;BME280;53926;47.406;19.188;2022-11-11T11:33:01;102081.28;;;17.54;63.85
67013;BME280;53926;47.406;19.188;2022-11-11T11:35:29;102085.38;;;17.43;62.20
67013;BME280;53926;47.406;19.188;2022-11-11T11:38:00;102092.75;;;17.14;64.30
67013;BME280;53926;47.406;19.188;2022-11-11T11:40:53;102083.31;;;16.59;70.51
67013;BME280;53926;47.406;19.188;2022-11-11T11:43:38;102085.75;;;17.46;64.52
67013;BME280;53926;47.406;19.188;2022-11-11T11:51:42;102091.50;;;17.23;63.45
67013;BME280;53926;47.406;19.188;2022-11-11T11:54:29;102098.09;;;16.34;67.67
67013;BME280;53926;47.406;19.188;2022-11-11T11:57:03;102095.66;;;16.52;68.01
67013;BME280;53926;47.406;19.188;2022-11-11T11:59:40;102103.16;;;16.42;72.16
67013;BME280;53926;47.406;19.188;2022-11-11T12:02:26;102102.88;;;17.24;67.41
67013;BME280;53926;47.406;19.188;2022-11-11T12:05:08;102103.16;;;16.89;67.01
67013;BME280;53926;47.406;19.188;2022-11-11T12:16:26;102110.91;;;15.33;77.27
67013;BME280;53926;47.406;19.188;2022-11-11T12:21:40;102104.28;;;17.20;68.26
67013;BME280;53926;47.406;19.188;2022-11-11T12:32:41;102093.88;;;19.09;58.19
67013;BME280;53926;47.406;19.188;2022-11-11T12:45:51;102107.22;;;15.63;72.22
67013;BME280;53926;47.406;19.188;2022-11-11T12:48:26;102101.97;;;14.15;80.08
67013;BME280;53926;47.406;19.188;2022-11-11T12:56:57;102076.47;;;14.23;80.51
67013;BME280;53926;47.406;19.188;2022-11-11T13:11:12;102081.44;;;14.90;76.15
67013;BME280;53926;47.406;19.188;2022-11-11T13:16:27;102064.47;;;14.92;76.55
67013;BME280;53926;47.406;19.188;2022-11-11T13:19:00;102057.25;;;14.66;76.96
67013;BME280;53926;47.406;19.188;2022-11-11T13:21:44;102056.47;;;14.72;76.73
67013;BME280;53926;47.406;19.188;2022-11-11T13:24:14;102046.44;;;14.76;76.58
67013;BME280;53926;47.406;19.188;2022-11-11T13:26:47;102055.88;;;14.70;75.17
67013;BME280;53926;47.406;19.188;2022-11-11T13:32:15;102053.34;;;14.34;76.31
67013;BME280;53926;47.406;19.188;2022-11-11T13:34:44;102054.28;;;14.26;76.80
67013;BME280;53926;47.406;19.188;2022-11-11T13:37:40;102050.25;;;14.23;74.42
67013;BME280;53926;47.406;19.188;2022-11-11T13:42:51;102052.09;;;13.65;71.76
67013;BME280;53926;47.406;19.188;2022-11-11T13:45:37;102058.34;;;13.49;72.71
67013;BME280;53926;47.406;19.188;2022-11-11T13:48:05;102051.31;;;13.49;72.21
67013;BME280;53926;47.406;19.188;2022-11-11T13:50:36;102050.63;;;13.40;71.91
67013;BME280;53926;47.406;19.188;2022-11-11T13:53:06;102068.31;;;13.38;72.75
67013;BME280;53926;47.406;19.188;2022-11-11T13:55:41;102056.38;;;13.21;74.86
67013;BME280;53926;47.406;19.188;2022-11-11T13:58:22;102055.03;;;13.25;73.45
67013;BME280;53926;47.406;19.188;2022-11-11T14:01:01;102047.44;;;13.15;73.51
67013;BME280;53926;47.406;19.188;2022-11-11T14:03:33;102050.78;;;12.94;75.99
67013;BME280;53926;47.406;19.188;2022-11-11T14:11:38;102048.69;;;12.75;76.36
67013;BME280;53926;47.406;19.188;2022-11-11T14:17:12;102052.09;;;12.75;77.53
67013;BME280;53926;47.406;19.188;2022-11-11T14:19:40;102049.75;;;12.65;78.36
67013;BME280;53926;47.406;19.188;2022-11-11T14:22:29;102032.44;;;12.64;77.41
67013;BME280;53926;47.406;19.188;2022-11-11T14:25:16;102031.91;;;12.54;79.23
67013;BME280;53926;47.406;19.188;2022-11-11T14:27:45;102034.31;;;12.41;80.48
67013;BME280;53926;47.406;19.188;2022-11-11T14:30:27;102036.66;;;12.12;84.33
67013;BME280;53926;47.406;19.188;2022-11-11T14:33:22;102040.06;;;12.13;83.30
67013;BME280;53926;47.406;19.188;2022-11-11T14:36:04;102032.19;;;11.98;84.03
67013;BME280;53926;47.406;19.188;2022-11-11T14:38:58;102014.13;;;11.88;85.29
67013;BME280;53926;47.406;19.188;2022-11-11T14:59:58;102012.75;;;11.38;91.18
67013;BME280;53926;47.406;19.188;2022-11-11T15:02:37;102017.41;;;11.27;92.05
67013;BME280;53926;47.406;19.188;2022-11-11T15:05:12;102014.72;;;11.04;94.48
67013;BME280;53926;47.406;19.188;2022-11-11T15:22:16;102032.16;;;9.89;100.00
67013;BME280;53926;47.406;19.188;2022-11-11T15:33:17;102038.03;;;8.53;100.00
67013;BME280;53926;47.406;19.188;2022-11-11T15:35:57;102039.34;;;8.75;100.00